Hlavní strana
METAR-TAF:

METAR-TAF

Letiště :

Luleå, Švédsko

zeměpisná šířka: 65-33N, zeměpisná délka: 022-08E, výška: 17 m

Aktuální stav počasí

Zpráva byla vytvořena před 15 minutami, v 18:20 UTC
Západojihozápadní vítr 7 kt, proměnlivý mezi jihozápadním a západoseverozápadním
Teplota 8°C
Vlhkost vzduchu 66%
Tlak 1005 hPa
Viditelnost 10 km a více
Žádná oblačnost pod 1500 m, nevyskytují se cumulonimby.

METAR: ESPA 181820Z 25007KT 230V290 CAVOK 08/02 Q1005

Čas: 20:35 (18:35 UTC)

Předpověď počasí

Zpráva byla vytvořena před 55 minutami, v 17:40 UTC
Předpověď platná od 18 v 18 UTC do 18 v 23 UTC
Západní vítr 10 kt
Viditelnost 10 km a více
Žádná oblačnost pod 1500 m, nevyskytují se cumulonimby.

TAF: ESPA 181740Z 1818/1823 26010KT CAVOK RMK MIL

Stav a předpovědi počasí z více než 4 000 letišť (zprávy METAR a TAF).

Červené a žluté tečky na mapě představují dostupné meteorologické stanice.

Když kurzor umístíte na tečku, zobrazí se název stanice.

Pak kliknutím zobrazíte stav a předpověď počasí.

Chcete-li změnit mapu, kliknutím na zelené tlačítko se znaménkem +mapu přiblížíte, kliknutím na zelené tlačítko se znaménkem – mapu oddálíte a kliknutím na zelené šipky přejdete na sousední mapy.


METAR-TAF: